LIBF/FOG METAR and TAF weather

Enter ICAO airport designator
Station Type Date Time Source
LIBF METAR 2022/06/28 14:50 UTC NOAA

LIBF 281450Z 09012KT CAVOK 36/15 Q1012


Station Type Date Time Source
LIBF Decoded METAR 2022/06/28 14:50 UTC NOAA

Station name not available
Jun 28, 2022 - 10:50 AM EDT / 2022.06.28 1450 UTC
Wind: from the E (090 degrees) at 14 MPH (12 KT):0
Visibility: greater than 7 mile(s):0
Temperature: 96 F (36 C)
Heat index: 95.0 F (35.0 C):1
Dew Point: 59 F (15 C)
Relative Humidity: 28%
Pressure (altimeter): 29.88 in. Hg (1012 hPa)
ob: LIBF 281450Z 09012KT CAVOK 36/15 Q1012
cycle: 15

Station Type Date Time Source
LIBF TAF 2022/06/28 12:00 UTC NOAA

TAF LIBF 281100Z 2812/2912 03010KT CAVOK
BECMG 2819/2821 VRB05KT
BECMG 2908/2910 09010KT

Example: see airport list